createdAt,value
2022-08-27T00:01:23.219Z,70.50
2022-08-27T00:03:50.288Z,70.44
2022-08-27T00:06:19.321Z,70.46
2022-08-27T00:08:47.561Z,70.40
2022-08-27T00:11:16.817Z,70.58
2022-08-27T00:13:46.369Z,70.57
2022-08-27T00:16:15.576Z,70.57
2022-08-27T00:18:43.937Z,70.65
2022-08-27T00:21:16.132Z,70.63
2022-08-27T00:23:42.701Z,70.67
2022-08-27T00:26:10.568Z,70.33
2022-08-27T00:28:37.520Z,70.71
2022-08-27T00:31:04.118Z,70.78
2022-08-27T00:33:35.699Z,70.79
2022-08-27T00:36:03.436Z,70.89
2022-08-27T00:38:32.449Z,71.06
2022-08-27T00:41:01.171Z,71.11
2022-08-27T00:43:34.939Z,71.35
2022-08-27T00:46:22.959Z,71.16
2022-08-27T00:48:53.026Z,71.29
2022-08-27T00:51:21.511Z,71.68
2022-08-27T00:53:50.079Z,71.39
2022-08-27T00:56:21.570Z,71.52
2022-08-27T00:58:51.923Z,71.65
2022-08-27T01:01:24.512Z,71.98
2022-08-27T01:03:55.198Z,71.85
2022-08-27T01:06:24.127Z,71.86
2022-08-27T01:08:54.533Z,71.95
2022-08-27T01:11:21.426Z,71.88
2022-08-27T01:14:00.030Z,71.88
2022-08-27T01:16:37.203Z,71.94
2022-08-27T01:19:08.103Z,72.00
2022-08-27T01:21:55.705Z,72.06
2022-08-27T01:24:30.444Z,72.15
2022-08-27T01:26:59.501Z,72.31
2022-08-27T01:29:26.846Z,72.40
2022-08-27T01:31:59.971Z,72.56
2022-08-27T01:34:31.002Z,72.43
2022-08-27T01:36:57.657Z,72.64
2022-08-27T01:39:26.842Z,72.95
2022-08-27T01:41:54.414Z,73.11
2022-08-27T01:44:21.114Z,73.18
2022-08-27T01:46:48.015Z,73.42
2022-08-27T01:49:14.653Z,73.44
2022-08-27T01:51:41.793Z,73.45
2022-08-27T01:54:08.341Z,73.81
2022-08-27T01:56:34.889Z,73.67
2022-08-27T01:59:01.471Z,74.07
2022-08-27T02:01:28.210Z,74.10
2022-08-27T02:03:55.772Z,74.04
2022-08-27T02:06:24.675Z,74.13
2022-08-27T02:08:51.205Z,73.98
2022-08-27T02:11:19.879Z,74.09
2022-08-27T02:13:49.250Z,74.16
2022-08-27T02:16:16.285Z,74.32
2022-08-27T02:18:42.926Z,74.58
2022-08-27T02:21:09.535Z,74.31
2022-08-27T02:23:36.469Z,74.39
2022-08-27T02:26:02.996Z,74.52
2022-08-27T02:28:29.547Z,74.58
2022-08-27T02:30:56.194Z,74.60
2022-08-27T02:33:22.856Z,74.51
2022-08-27T02:35:51.702Z,74.30
2022-08-27T02:38:18.414Z,74.47
2022-08-27T02:40:47.495Z,74.54
2022-08-27T02:43:14.179Z,74.75
2022-08-27T02:45:42.964Z,74.58
2022-08-27T02:48:12.208Z,74.54
2022-08-27T02:50:39.183Z,74.75
2022-08-27T02:53:06.540Z,74.78
2022-08-27T02:55:33.397Z,74.99
2022-08-27T02:57:59.915Z,75.09
2022-08-27T03:00:28.971Z,74.95
2022-08-27T03:02:56.501Z,75.36
2022-08-27T03:05:23.827Z,75.40
2022-08-27T03:07:50.853Z,75.35
2022-08-27T03:10:20.132Z,75.11
2022-08-27T03:12:47.329Z,75.22
2022-08-27T03:15:19.215Z,75.46
2022-08-27T03:18:04.506Z,74.90
2022-08-27T03:20:31.394Z,75.45
2022-08-27T03:22:58.264Z,75.35
2022-08-27T03:25:25.625Z,75.17
2022-08-27T03:27:54.511Z,75.32
2022-08-27T03:30:23.150Z,75.31
2022-08-27T03:32:55.665Z,75.33
2022-08-27T03:35:24.812Z,75.24
2022-08-27T03:37:51.688Z,75.28
2022-08-27T03:40:19.742Z,75.11
2022-08-27T03:42:46.433Z,75.00
2022-08-27T03:45:13.080Z,75.05
2022-08-27T03:47:42.990Z,75.17
2022-08-27T03:50:11.222Z,75.15
2022-08-27T03:52:40.387Z,75.32
2022-08-27T03:55:08.621Z,75.07
2022-08-27T03:57:36.014Z,75.01
2022-08-27T04:00:02.941Z,75.07
2022-08-27T04:02:29.625Z,75.21
2022-08-27T04:04:57.783Z,75.32
2022-08-27T04:07:24.386Z,75.22
2022-08-27T04:09:50.920Z,75.47
2022-08-27T04:12:17.529Z,75.60
2022-08-27T04:14:44.097Z,75.78
2022-08-27T04:17:13.105Z,75.76
2022-08-27T04:19:39.659Z,76.03
2022-08-27T04:22:07.934Z,75.99
2022-08-27T04:24:36.536Z,76.31
2022-08-27T04:27:04.537Z,76.38
2022-08-27T04:29:31.637Z,76.32
2022-08-27T04:31:59.326Z,76.49
2022-08-27T04:34:28.342Z,76.53
2022-08-27T04:36:56.724Z,76.57
2022-08-27T04:39:25.791Z,76.66
2022-08-27T04:41:58.571Z,76.64
2022-08-27T04:44:31.034Z,76.61
2022-08-27T04:47:01.534Z,76.50
2022-08-27T04:49:29.026Z,76.52
2022-08-27T04:51:57.844Z,76.36
2022-08-27T04:54:32.313Z,76.33
2022-08-27T04:56:59.792Z,76.45
2022-08-27T04:59:26.545Z,76.25
2022-08-27T05:01:55.579Z,76.29
2022-08-27T05:04:22.213Z,76.30
2022-08-27T05:06:50.542Z,76.17
2022-08-27T05:09:21.222Z,76.35
2022-08-27T05:11:52.679Z,76.26
2022-08-27T05:14:20.418Z,76.37
2022-08-27T05:16:47.649Z,76.43
2022-08-27T05:19:14.802Z,76.29
2022-08-27T05:21:46.994Z,76.18
2022-08-27T05:24:14.243Z,76.27
2022-08-27T05:26:40.926Z,76.16
2022-08-27T05:29:10.538Z,75.96
2022-08-27T05:31:39.106Z,75.81
2022-08-27T05:34:10.457Z,75.67
2022-08-27T05:36:48.995Z,75.44
2022-08-27T05:39:16.934Z,75.38
2022-08-27T05:41:43.710Z,75.42
2022-08-27T05:46:57.030Z,75.18
2022-08-27T05:49:23.584Z,75.17
2022-08-27T05:51:50.518Z,75.04
2022-08-27T05:54:19.628Z,75.11
2022-08-27T05:56:47.734Z,75.01
2022-08-27T05:59:34.581Z,74.95
2022-08-27T06:02:02.536Z,74.75
2022-08-27T06:04:29.290Z,74.94
2022-08-27T06:06:58.296Z,74.67
2022-08-27T06:09:28.898Z,74.58
2022-08-27T06:12:02.627Z,74.25
2022-08-27T06:14:30.393Z,74.13
2022-08-27T06:16:57.040Z,73.84
2022-08-27T06:19:24.386Z,73.46
2022-08-27T06:22:00.314Z,73.23
2022-08-27T06:24:39.522Z,72.73
2022-08-27T06:27:06.397Z,72.29
2022-08-27T06:29:35.195Z,71.63
2022-08-27T06:32:01.956Z,70.84
2022-08-27T06:34:28.516Z,70.19
2022-08-27T06:36:55.090Z,69.52
2022-08-27T06:39:23.922Z,69.65
2022-08-27T06:41:50.737Z,68.23
2022-08-27T06:44:17.598Z,66.18
2022-08-27T06:46:44.669Z,64.66
2022-08-27T06:49:13.715Z,65.23
2022-08-27T06:51:45.737Z,63.31
2022-08-27T06:54:14.024Z,55.79
2022-08-27T06:56:42.773Z,51.77
2022-08-27T06:59:16.082Z,48.67
2022-08-27T07:01:46.073Z,47.43
2022-08-27T07:04:17.993Z,45.40
2022-08-27T07:06:44.828Z,43.27
2022-08-27T07:09:12.160Z,42.38
2022-08-27T07:11:38.765Z,42.43
2022-08-27T07:14:06.768Z,42.25
2022-08-27T07:16:33.861Z,42.50
2022-08-27T07:19:05.465Z,41.17
2022-08-27T07:21:33.833Z,41.03
2022-08-27T07:24:04.682Z,40.74
2022-08-27T07:26:36.251Z,40.79
2022-08-27T07:29:05.207Z,40.34
2022-08-27T07:31:35.553Z,39.57
2022-08-27T07:34:08.204Z,40.68
2022-08-27T07:36:35.481Z,40.14
2022-08-27T07:39:02.268Z,38.82
2022-08-27T07:41:53.543Z,37.79
2022-08-27T07:44:31.037Z,38.22
2022-08-27T07:47:01.700Z,37.33
2022-08-27T07:49:29.229Z,37.32
2022-08-27T07:51:55.867Z,36.26
2022-08-27T07:54:23.208Z,35.52
2022-08-27T07:56:55.917Z,36.02
2022-08-27T07:59:27.425Z,39.91
2022-08-27T08:01:56.213Z,43.08
2022-08-27T08:04:23.413Z,44.80
2022-08-27T08:06:51.018Z,43.78
2022-08-27T08:09:17.654Z,43.35
2022-08-27T08:11:46.565Z,44.16
2022-08-27T08:14:15.331Z,43.99
2022-08-27T08:16:41.992Z,44.15
2022-08-27T08:19:09.439Z,43.12
2022-08-27T08:21:36.451Z,43.41
2022-08-27T08:24:03.466Z,43.47
2022-08-27T08:26:32.460Z,43.85
2022-08-27T08:29:00.758Z,41.92
2022-08-27T08:31:27.480Z,43.71
2022-08-27T08:33:54.877Z,44.81
2022-08-27T08:36:21.484Z,45.87
2022-08-27T08:38:48.338Z,46.66
2022-08-27T08:41:51.565Z,47.54
2022-08-27T08:44:43.873Z,48.09
2022-08-27T08:47:16.760Z,48.68
2022-08-27T08:49:52.165Z,48.26
2022-08-27T08:52:48.401Z,48.19
2022-08-27T08:55:37.155Z,48.51
2022-08-27T08:58:13.097Z,48.14
2022-08-27T09:00:43.879Z,48.38
2022-08-27T09:03:16.148Z,48.59
2022-08-27T09:05:53.659Z,49.09
2022-08-27T09:08:35.203Z,48.81
2022-08-27T09:11:09.006Z,44.13
2022-08-27T09:13:44.715Z,43.13
2022-08-27T09:16:11.480Z,42.06
2022-08-27T09:18:40.820Z,42.82
2022-08-27T09:21:33.928Z,42.65
2022-08-27T09:24:12.346Z,42.23
2022-08-27T09:26:42.876Z,42.92
2022-08-27T09:29:15.915Z,42.65
2022-08-27T09:32:00.564Z,43.65
2022-08-27T09:34:39.955Z,43.40
2022-08-27T09:37:08.776Z,44.35
2022-08-27T09:39:48.753Z,44.17
2022-08-27T09:42:44.466Z,45.00
2022-08-27T09:45:29.732Z,46.64
2022-08-27T09:48:10.217Z,46.68
2022-08-27T09:50:46.602Z,45.62
2022-08-27T09:53:28.910Z,46.32
2022-08-27T09:55:58.969Z,47.26
2022-08-27T09:58:31.943Z,47.71
2022-08-27T10:01:26.471Z,47.84
2022-08-27T10:04:13.622Z,47.76
2022-08-27T10:06:52.278Z,47.36
2022-08-27T10:09:36.164Z,47.92
2022-08-27T10:12:14.229Z,48.23
2022-08-27T10:14:47.409Z,47.69
2022-08-27T10:17:32.619Z,47.56
2022-08-27T10:20:29.606Z,46.92
2022-08-27T10:23:26.775Z,46.80
2022-08-27T10:26:24.997Z,47.16
2022-08-27T10:29:35.784Z,47.00
2022-08-27T10:32:05.543Z,46.70
2022-08-27T10:34:57.042Z,46.23
2022-08-27T10:37:40.593Z,45.81
2022-08-27T10:40:08.447Z,45.63
2022-08-27T10:42:58.038Z,45.83
2022-08-27T10:45:43.177Z,45.45
2022-08-27T10:48:29.289Z,45.31
2022-08-27T10:51:19.538Z,45.54
2022-08-27T10:54:05.988Z,45.24
2022-08-27T10:57:24.536Z,44.74
2022-08-27T10:59:56.063Z,44.75
2022-08-27T11:02:28.531Z,44.79
2022-08-27T11:05:01.333Z,44.90
2022-08-27T11:07:38.336Z,44.43
2022-08-27T11:10:21.545Z,44.31
2022-08-27T11:12:53.332Z,44.79
2022-08-27T11:15:29.037Z,44.79
2022-08-27T11:18:08.102Z,44.63
2022-08-27T11:20:58.458Z,44.06
2022-08-27T11:23:58.455Z,43.63
2022-08-27T11:26:25.401Z,42.52
2022-08-27T11:28:59.749Z,43.00
2022-08-27T11:31:48.466Z,43.00
2022-08-27T11:34:35.353Z,43.06
2022-08-27T11:37:21.749Z,42.99
2022-08-27T11:40:21.837Z,43.12
2022-08-27T11:43:01.848Z,42.74
2022-08-27T11:45:34.889Z,42.45
2022-08-27T11:48:14.849Z,42.77
2022-08-27T11:50:41.550Z,43.07
2022-08-27T11:53:08.729Z,42.92
2022-08-27T11:55:38.662Z,42.91
2022-08-27T11:58:24.528Z,42.96
2022-08-27T12:00:55.273Z,43.17
2022-08-27T12:03:21.825Z,43.02
2022-08-27T12:05:54.561Z,42.78
2022-08-27T12:08:24.098Z,42.71
2022-08-27T12:11:09.604Z,42.65
2022-08-27T12:13:53.680Z,42.66
2022-08-27T12:16:41.903Z,42.45
2022-08-27T12:19:16.105Z,42.91
2022-08-27T12:21:48.735Z,43.13
2022-08-27T12:24:31.485Z,42.76
2022-08-27T12:27:34.635Z,42.87
2022-08-27T12:30:22.147Z,42.98
2022-08-27T12:32:54.412Z,43.13
2022-08-27T12:35:28.719Z,43.03
2022-08-27T12:38:32.338Z,43.02
2022-08-27T12:41:09.157Z,43.03
2022-08-27T12:43:43.491Z,42.59
2022-08-27T12:46:19.341Z,43.09
2022-08-27T12:48:57.048Z,43.18
2022-08-27T12:51:32.007Z,43.39
2022-08-27T12:54:24.559Z,43.78
2022-08-27T12:57:07.213Z,43.90
2022-08-27T13:00:02.450Z,43.79
2022-08-27T13:03:01.294Z,43.94
2022-08-27T13:05:41.111Z,43.94
2022-08-27T13:08:23.502Z,43.50
2022-08-27T13:10:50.951Z,43.46
2022-08-27T13:13:20.051Z,43.28
2022-08-27T13:15:51.157Z,43.33
2022-08-27T13:18:18.461Z,43.31
2022-08-27T13:20:52.603Z,43.19
2022-08-27T13:23:24.385Z,43.18
2022-08-27T13:26:21.707Z,43.16
2022-08-27T13:28:49.646Z,43.09
2022-08-27T13:31:16.999Z,43.34
2022-08-27T13:33:46.930Z,43.45
2022-08-27T13:36:14.878Z,43.83
2022-08-27T13:38:49.924Z,43.46
2022-08-27T13:41:29.261Z,43.46
2022-08-27T13:43:59.356Z,43.70
2022-08-27T13:46:30.960Z,43.15
2022-08-27T13:48:59.181Z,43.74
2022-08-27T13:51:37.339Z,43.69
2022-08-27T13:54:13.357Z,43.78
2022-08-27T13:57:03.871Z,43.66
2022-08-27T13:59:31.313Z,43.62
2022-08-27T14:02:10.345Z,43.61
2022-08-27T14:04:40.951Z,43.83
2022-08-27T14:07:17.485Z,44.23
2022-08-27T14:09:54.383Z,44.30
2022-08-27T14:12:35.504Z,43.92
2022-08-27T14:15:23.284Z,44.57
2022-08-27T14:17:50.733Z,44.64
2022-08-27T14:20:19.600Z,44.93
2022-08-27T14:22:47.115Z,45.40
2022-08-27T14:25:17.580Z,45.48
2022-08-27T14:27:54.275Z,45.37
2022-08-27T14:30:29.642Z,45.65
2022-08-27T14:33:00.698Z,45.59
2022-08-27T14:35:29.775Z,45.15
2022-08-27T14:37:57.791Z,45.50
2022-08-27T14:40:24.416Z,45.47
2022-08-27T14:42:51.661Z,45.63
2022-08-27T14:45:18.636Z,45.45
2022-08-27T14:47:45.640Z,45.42
2022-08-27T14:50:15.723Z,45.54
2022-08-27T14:52:42.455Z,45.33
2022-08-27T14:55:11.034Z,45.63
2022-08-27T14:57:38.543Z,45.88
2022-08-27T15:00:08.098Z,45.40
2022-08-27T15:02:35.452Z,45.42
2022-08-27T15:05:07.908Z,45.68
2022-08-27T15:07:38.875Z,45.66
2022-08-27T15:10:08.681Z,45.53
2022-08-27T15:12:35.678Z,45.84
2022-08-27T15:15:03.679Z,46.11
2022-08-27T15:17:35.217Z,46.27
2022-08-27T15:20:13.710Z,46.35
2022-08-27T15:22:48.476Z,46.45
2022-08-27T15:25:18.604Z,46.29
2022-08-27T15:27:45.167Z,46.51
2022-08-27T15:30:14.223Z,46.24
2022-08-27T15:32:44.174Z,46.18
2022-08-27T15:35:14.503Z,46.00
2022-08-27T15:37:42.533Z,46.20
2022-08-27T15:40:10.990Z,46.55
2022-08-27T15:42:37.671Z,46.49
2022-08-27T15:45:06.833Z,46.43
2022-08-27T15:47:33.801Z,46.54
2022-08-27T15:50:00.687Z,46.36
2022-08-27T15:52:40.490Z,46.41
2022-08-27T15:55:21.232Z,46.59
2022-08-27T15:57:47.891Z,46.47
2022-08-27T16:00:16.495Z,46.56
2022-08-27T16:02:44.810Z,46.59
2022-08-27T16:05:12.788Z,46.50
2022-08-27T16:07:39.679Z,46.89
2022-08-27T16:10:07.197Z,46.91
2022-08-27T16:12:33.736Z,46.70
2022-08-27T16:15:00.959Z,46.93
2022-08-27T16:17:27.868Z,46.81
2022-08-27T16:19:54.639Z,47.26
2022-08-27T16:22:21.252Z,47.29
2022-08-27T16:24:50.914Z,47.37
2022-08-27T16:27:17.446Z,47.53
2022-08-27T16:29:46.515Z,47.41
2022-08-27T16:32:17.237Z,47.67
2022-08-27T16:34:55.735Z,47.61
2022-08-27T16:37:24.241Z,47.62
2022-08-27T16:39:51.267Z,47.51
2022-08-27T16:42:17.922Z,47.55
2022-08-27T16:44:46.948Z,47.65
2022-08-27T16:47:13.822Z,47.79
2022-08-27T16:49:58.653Z,48.02
2022-08-27T16:52:25.362Z,47.84
2022-08-27T16:54:52.135Z,48.01
2022-08-27T16:57:19.238Z,48.09
2022-08-27T16:59:46.045Z,48.24
2022-08-27T17:02:35.054Z,48.45
2022-08-27T17:05:30.657Z,48.18
2022-08-27T17:07:51.007Z,48.49
2022-08-27T17:10:18.954Z,48.37
2022-08-27T17:12:48.556Z,48.67
2022-08-27T17:15:18.724Z,48.68
2022-08-27T17:17:50.123Z,48.81
2022-08-27T17:20:17.024Z,49.08
2022-08-27T17:22:43.697Z,49.14
2022-08-27T17:25:11.019Z,49.12
2022-08-27T17:27:37.619Z,49.21
2022-08-27T17:30:05.267Z,49.69
2022-08-27T17:32:37.334Z,49.87
2022-08-27T17:35:10.618Z,50.30
2022-08-27T17:37:38.217Z,50.77
2022-08-27T17:40:06.159Z,51.12
2022-08-27T17:42:33.065Z,51.42
2022-08-27T17:45:00.125Z,51.89
2022-08-27T17:47:26.956Z,52.24
2022-08-27T17:49:56.339Z,52.66
2022-08-27T17:52:25.429Z,52.26
2022-08-27T17:54:54.306Z,52.73
2022-08-27T17:57:27.327Z,53.23
2022-08-27T17:59:55.552Z,53.44
2022-08-27T18:02:32.980Z,53.52
2022-08-27T18:04:59.923Z,53.52
2022-08-27T18:07:26.730Z,54.09
2022-08-27T18:09:53.482Z,53.87
2022-08-27T18:12:24.082Z,54.29
2022-08-27T18:14:58.883Z,54.52
2022-08-27T18:17:25.404Z,54.29
2022-08-27T18:19:54.329Z,54.82
2022-08-27T18:22:24.658Z,54.86
2022-08-27T18:24:53.764Z,54.83
2022-08-27T18:27:28.847Z,54.93
2022-08-27T18:29:56.663Z,54.75
2022-08-27T18:32:23.702Z,55.00
2022-08-27T18:34:51.325Z,55.35
2022-08-27T18:37:18.612Z,55.07
2022-08-27T18:39:45.149Z,55.44
2022-08-27T18:42:12.816Z,55.23
2022-08-27T18:44:42.982Z,55.55
2022-08-27T18:47:09.563Z,55.31
2022-08-27T18:49:36.162Z,55.37
2022-08-27T18:52:03.023Z,55.29
2022-08-27T18:54:29.696Z,55.42
2022-08-27T18:56:56.287Z,55.71
2022-08-27T18:59:25.746Z,55.56
2022-08-27T19:01:54.071Z,55.62
2022-08-27T19:04:21.216Z,55.67
2022-08-27T19:06:47.807Z,55.52
2022-08-27T19:09:15.325Z,55.57
2022-08-27T19:11:42.513Z,55.71
2022-08-27T19:14:09.262Z,55.81
2022-08-27T19:16:47.926Z,55.73
2022-08-27T19:19:17.875Z,56.08
2022-08-27T19:21:49.242Z,55.87
2022-08-27T19:24:19.228Z,55.67
2022-08-27T19:26:48.042Z,55.92
2022-08-27T19:29:14.743Z,55.95
2022-08-27T19:31:41.365Z,55.63
2022-08-27T19:34:08.875Z,55.65
2022-08-27T19:36:41.774Z,55.64
2022-08-27T19:39:11.717Z,55.58
2022-08-27T19:41:38.488Z,55.70
2022-08-27T19:44:07.550Z,55.87
2022-08-27T19:46:36.791Z,55.80
2022-08-27T19:49:04.184Z,56.10
2022-08-27T19:51:33.284Z,55.92
2022-08-27T19:54:02.122Z,56.10
2022-08-27T19:56:28.956Z,55.71
2022-08-27T19:58:59.850Z,56.09
2022-08-27T20:01:30.182Z,56.18
2022-08-27T20:03:58.829Z,56.08
2022-08-27T20:06:29.668Z,55.94
2022-08-27T20:08:56.167Z,56.24
2022-08-27T20:11:23.056Z,55.99
2022-08-27T20:13:50.605Z,55.88
2022-08-27T20:16:17.502Z,56.22
2022-08-27T20:18:44.778Z,56.10
2022-08-27T20:21:11.439Z,55.97
2022-08-27T20:23:40.242Z,56.09
2022-08-27T20:26:06.901Z,56.17
2022-08-27T20:28:39.478Z,56.04
2022-08-27T20:31:06.987Z,56.11
2022-08-27T20:33:34.172Z,56.03
2022-08-27T20:36:01.546Z,56.23
2022-08-27T20:38:30.639Z,56.35
2022-08-27T20:40:57.413Z,56.25
2022-08-27T20:43:23.999Z,56.05
2022-08-27T20:45:55.471Z,56.37
2022-08-27T20:48:22.421Z,56.44
2022-08-27T20:50:49.199Z,56.50
2022-08-27T20:53:16.126Z,56.69
2022-08-27T20:55:43.036Z,56.58
2022-08-27T20:58:28.416Z,56.55
2022-08-27T21:00:58.422Z,56.83
2022-08-27T21:03:25.292Z,56.60
2022-08-27T21:05:52.611Z,56.81
2022-08-27T21:08:20.173Z,56.76
2022-08-27T21:10:51.414Z,56.65
2022-08-27T21:13:19.845Z,56.90
2022-08-27T21:15:46.986Z,57.24
2022-08-27T21:18:13.951Z,57.10
2022-08-27T21:20:41.026Z,57.26
2022-08-27T21:23:07.829Z,57.43
2022-08-27T21:25:37.693Z,57.36
2022-08-27T21:28:07.464Z,57.34
2022-08-27T21:30:37.493Z,57.51
2022-08-27T21:33:04.512Z,57.42
2022-08-27T21:35:32.845Z,57.58
2022-08-27T21:38:04.627Z,57.58
2022-08-27T21:40:33.657Z,57.81
2022-08-27T21:43:01.889Z,57.75
2022-08-27T21:45:28.599Z,58.08
2022-08-27T21:47:55.439Z,58.28
2022-08-27T21:50:23.471Z,58.50
2022-08-27T21:52:50.542Z,58.65
2022-08-27T21:55:18.262Z,58.83
2022-08-27T21:57:44.947Z,59.08
2022-08-27T22:00:28.313Z,59.10
2022-08-27T22:02:56.359Z,59.51
2022-08-27T22:05:23.560Z,59.87
2022-08-27T22:07:50.139Z,60.01
2022-08-27T22:10:24.018Z,60.23
2022-08-27T22:12:53.796Z,60.25
2022-08-27T22:15:25.706Z,60.45
2022-08-27T22:17:52.581Z,60.66
2022-08-27T22:20:19.564Z,60.88
2022-08-27T22:22:46.237Z,61.07
2022-08-27T22:25:13.174Z,61.21
2022-08-27T22:27:39.742Z,61.29
2022-08-27T22:30:11.032Z,61.49
2022-08-27T22:32:44.216Z,61.61
2022-08-27T22:35:13.304Z,61.43
2022-08-27T22:37:40.088Z,61.79
2022-08-27T22:40:19.188Z,62.20
2022-08-27T22:42:46.211Z,62.29
2022-08-27T22:45:15.296Z,62.32
2022-08-27T22:47:44.070Z,62.39
2022-08-27T22:50:11.198Z,62.65
2022-08-27T22:52:40.251Z,62.68
2022-08-27T22:55:07.379Z,62.93
2022-08-27T22:57:34.839Z,63.06
2022-08-27T23:00:04.817Z,63.34
2022-08-27T23:02:31.450Z,63.40
2022-08-27T23:04:58.019Z,63.58
2022-08-27T23:07:24.752Z,63.80
2022-08-27T23:09:53.849Z,63.99
2022-08-27T23:12:20.612Z,64.10
2022-08-27T23:14:47.251Z,64.20
2022-08-27T23:17:14.571Z,64.32
2022-08-27T23:19:44.067Z,64.75
2022-08-27T23:22:11.161Z,64.60
2022-08-27T23:24:57.888Z,64.87
2022-08-27T23:27:30.503Z,64.97
2022-08-27T23:30:01.907Z,65.26
2022-08-27T23:32:28.869Z,65.20
2022-08-27T23:34:56.348Z,65.35
2022-08-27T23:37:26.152Z,65.67
2022-08-27T23:39:53.406Z,65.64
2022-08-27T23:42:22.121Z,65.72
2022-08-27T23:44:49.264Z,66.33
2022-08-27T23:47:17.653Z,66.35
2022-08-27T23:49:44.821Z,66.24
2022-08-27T23:52:12.707Z,66.07
2022-08-27T23:54:41.095Z,66.54
2022-08-27T23:57:07.852Z,66.54
2022-08-27T23:59:35.201Z,66.76
